EW4993 Weather Reports


time (UTC)temp
C
wind
direction
speed
KPH
gust
KPH
rain 1hr
cm
rain 24hr
cm
rain mn
cm
humidity
%
barometer
mb
20240418171604 27 228 12.9 19.3 0.00 0.00 0.00 77 988.1
20240418170045 26 247 14.5 20.9 0.00 0.00 0.00 79 988.4
20240418164538 26 215 12.9 24.1 0.00 0.00 0.00 80 988.5
20240418163026 26 236 12.9 22.5 0.00 0.00 0.00 81 988.7
20240418161512 26 233 12.9 22.5 0.00 0.00 0.00 82 988.7
20240418160058 25 207 12.9 17.7 0.00 0.00 0.00 84 988.6
20240418154552 25 209 14.5 22.5 0.00 0.00 0.00 85 988.4
20240418153038 24 246 16.1 27.4 0.00 0.00 0.00 87 988.3
20240418151527 24 225 17.7 25.7 0.00 0.00 0.00 88 988.3
20240418150009 23 211 11.3 19.3 0.00 0.00 0.00 89 988.1
20240418144508 23 219 11.3 16.1 0.00 0.00 0.00 90 988.1
20240418143050 23 219 12.9 20.9 0.00 0.00 0.00 90 988.2
20240418141552 22 256 11.3 19.3 0.00 0.00 0.00 91 988.3
20240418140035 22 227 12.9 22.5 0.00 0.00 0.00 91 988.3
20240418134539 22 208 11.3 17.7 0.00 0.00 0.00 92 988.0
20240418133020 22 208 12.9 19.3 0.00 0.00 0.00 92 988.0
20240418131512 22 195 9.7 16.1 0.00 0.00 0.00 92 987.8
20240418130054 22 206 12.9 22.5 0.00 0.00 0.00 92 987.6
20240418124554 21 193 8.0 16.1 0.00 0.00 0.00 92 987.6
20240418123036 21 213 9.7 12.9 0.00 0.00 0.00 93 987.4
20240418121535 21 208 6.4 12.9 0.00 0.00 0.00 93 987.2
20240418120017 21 198 8.0 16.1 0.00 0.00 0.00 93 987.2
20240418114519 21 200 6.4 14.5 0.00 0.00 0.00 93 987.0
20240418113116 21 198 9.7 16.1 0.00 0.00 0.00 93 987.0
20240418111600 21 211 8.0 14.5 0.00 0.00 0.00 92 987.0
20240418110105 21 198 8.0 16.1 0.00 0.00 0.00 92 987.0
20240418104541 21 224 8.0 14.5 0.00 0.00 0.00 92 987.1
20240418103048 21 210 9.7 17.7 0.00 0.00 0.00 92 986.9
20240418101526 21 198 9.7 17.7 0.00 0.00 0.00 92 986.9
20240418100022 21 213 8.0 16.1 0.00 0.00 0.00 92 987.0
20240418094504 21 200 3.2 14.5 0.00 0.00 0.00 92 986.8
20240418093004 21 187 6.4 16.1 0.00 0.00 0.00 92 986.8
20240418091544 21 184 6.4 14.5 0.00 0.00 0.00 92 986.9
20240418090104 21 188 8.0 12.9 0.00 0.00 0.00 92 987.0
20240418084526 21 186 1.6 6.4 0.00 0.00 0.00 92 987.1
20240418083027 21 227 0.0 3.2 0.00 0.00 0.00 92 987.2
20240418081513 21 228 0.0 0.0 0.00 0.00 0.00 92 987.5
20240418080013 21 228 0.0 0.0 0.00 0.00 0.00 92 987.3
20240418074550 21 229 0.0 0.0 0.00 0.00 0.00 91 987.6
20240418073050 21 229 0.0 0.0 0.00 0.00 0.00 91 987.7
20240418071535 21 229 0.0 0.0 0.00 0.00 0.00 91 987.7
20240418070055 21 229 0.0 0.0 0.00 0.00 0.00 90 987.8
20240418064509 21 229 0.0 3.2 0.00 0.00 0.00 90 987.9
20240418063007 21 229 0.0 8.0 0.00 0.00 0.00 89 987.9
20240418061550 22 231 6.4 14.5 0.00 0.00 0.00 89 987.8
20240418060048 22 232 9.7 16.1 0.00 0.00 0.00 89 987.7
20240418054526 22 211 9.7 16.1 0.00 0.00 0.00 89 987.4
20240418053025 22 213 8.0 16.1 0.00 0.00 0.00 89 987.2
20240418051506 22 213 8.0 19.3 0.00 0.00 0.00 89 987.1
20240418050006 22 198 11.3 19.3 0.00 0.00 0.00 89 987.2
20240418044547 22 160 14.5 20.9 0.00 0.00 0.00 88 986.6
20240418043048 22 181 12.9 19.3 0.00 0.00 0.00 88 987.1
20240418041526 22 162 9.7 16.1 0.00 0.00 0.00 87 987.4
20240418040025 22 167 8.0 17.7 0.00 0.00 0.00 87 987.6
20240418034507 22 186 9.7 16.1 0.00 0.00 0.00 87 988.0
20240418033006 22 177 11.3 16.1 0.00 0.00 0.00 86 988.0
20240418031611 22 175 12.9 19.3 0.00 0.00 0.00 85 987.7
20240418030048 23 174 12.9 24.1 0.00 0.00 0.00 85 987.6
20240418024531 23 181 9.7 17.7 0.00 0.00 0.00 84 987.8
20240418023029 23 184 12.9 20.9 0.00 0.00 0.00 84 987.2
20240418021511 23 203 16.1 25.7 0.00 0.00 0.00 84 987.1
20240418020013 23 181 11.3 19.3 0.00 0.00 0.00 85 987.1
20240418014552 23 169 12.9 20.9 0.00 0.00 0.00 86 986.8
20240418013049 23 187 9.7 12.9 0.00 0.00 0.00 87 987.0
20240418011531 23 165 8.0 11.3 0.00 0.00 0.00 86 987.1
20240418010030 23 173 8.0 12.9 0.00 0.00 0.00 84 987.1
20240418004512 24 169 6.4 12.9 0.00 0.00 0.00 83 987.1
20240418003025 25 173 8.0 12.9 0.00 0.00 0.00 83 987.2
20240418001553 25 171 8.0 14.5 0.00 0.00 0.00 83 987.1
20240418000053 24 172 6.4 14.5 0.00 0.00 0.00 86 987.2
20240417234535 25 92 0.0 3.2 0.00 0.00 0.00 88 987.2
20240417233034 25 86 4.8 12.9 0.00 0.00 0.00 88 986.9
20240417231522 25 80 4.8 8.0 0.00 0.00 0.00 88 986.8
20240417230017 25 136 0.0 0.0 0.00 0.00 0.00 87 986.8
20240417224608 25 136 0.0 0.0 0.00 0.00 0.00 86 986.9
20240417223105 25 136 0.0 0.0 0.00 0.00 0.00 85 987.0
20240417221541 25 136 0.0 0.0 0.00 0.00 0.00 85 986.9
20240417220043 25 138 0.0 3.2 0.00 0.00 0.00 84 986.8
20240417214534 25 148 0.0 11.3 0.00 0.00 0.00 84 986.9
20240417213029 25 164 0.0 4.8 0.00 0.00 0.00 84 986.9
20240417211601 25 165 0.0 9.7 0.00 0.00 0.00 83 987.4
20240417210000 25 189 6.4 11.3 0.00 0.00 0.00 83 987.7
20240417204543 25 182 8.0 12.9 0.00 0.00 0.00 84 987.7
20240417203053 25 153 9.7 14.5 0.00 0.00 0.00 84 987.5
20240417201523 25 157 9.7 20.9 0.00 0.00 0.00 84 987.8
20240417200031 25 194 16.1 22.5 0.00 0.00 0.00 83 988.1
20240417194505 26 171 16.1 25.7 0.00 0.00 0.00 82 987.9
20240417193009 26 173 17.7 27.4 0.00 0.00 0.00 82 987.8
20240417191547 26 159 19.3 29.0 0.00 0.00 0.00 82 987.7
20240417190052 26 134 14.5 20.9 0.00 0.00 0.00 82 987.9
20240417184524 26 138 6.4 14.5 0.00 0.00 0.00 82 988.3
20240417183020 26 118 6.4 16.1 0.00 0.00 0.00 85 988.5
20240417181615 26 133 0.0 0.0 0.00 0.00 0.00 86 988.7
20240417180118 25 152 0.0 11.3 0.00 0.00 0.00 88 989.1
20240417174535 25 178 0.0 0.0 0.00 0.00 0.00 90 989.3
20240417173032 24 158 0.0 0.0 0.00 0.00 0.00 91 989.4